sensor_id;sensor_type;location;lat;lon;timestamp;P1;durP1;ratioP1;P2;durP2;ratioP2
81648;SDS011;71057;51.436;6.768;2024-02-04T00:00:06;9.20;;;5.40;;
81648;SDS011;71057;51.436;6.768;2024-02-04T00:02:32;8.10;;;5.60;;
81648;SDS011;71057;51.436;6.768;2024-02-04T00:04:57;9.27;;;5.10;;
81648;SDS011;71057;51.436;6.768;2024-02-04T00:07:22;6.43;;;4.67;;
81648;SDS011;71057;51.436;6.768;2024-02-04T00:09:48;6.80;;;4.50;;
81648;SDS011;71057;51.436;6.768;2024-02-04T00:12:13;5.57;;;4.05;;
81648;SDS011;71057;51.436;6.768;2024-02-04T00:14:38;4.97;;;3.85;;
81648;SDS011;71057;51.436;6.768;2024-02-04T00:17:04;5.22;;;3.28;;
81648;SDS011;71057;51.436;6.768;2024-02-04T00:19:29;5.10;;;3.20;;
81648;SDS011;71057;51.436;6.768;2024-02-04T00:21:54;5.30;;;3.63;;
81648;SDS011;71057;51.436;6.768;2024-02-04T00:24:20;4.75;;;3.25;;
81648;SDS011;71057;51.436;6.768;2024-02-04T00:26:45;4.93;;;3.10;;
81648;SDS011;71057;51.436;6.768;2024-02-04T00:29:10;5.30;;;3.35;;
81648;SDS011;71057;51.436;6.768;2024-02-04T00:31:36;5.03;;;3.47;;
81648;SDS011;71057;51.436;6.768;2024-02-04T00:34:01;7.23;;;4.00;;
81648;SDS011;71057;51.436;6.768;2024-02-04T00:36:26;6.32;;;3.97;;
81648;SDS011;71057;51.436;6.768;2024-02-04T00:38:52;6.27;;;4.07;;
81648;SDS011;71057;51.436;6.768;2024-02-04T00:41:17;6.87;;;4.77;;
81648;SDS011;71057;51.436;6.768;2024-02-04T00:43:42;6.97;;;4.18;;
81648;SDS011;71057;51.436;6.768;2024-02-04T00:46:08;6.57;;;3.78;;
81648;SDS011;71057;51.436;6.768;2024-02-04T00:48:35;6.38;;;3.80;;
81648;SDS011;71057;51.436;6.768;2024-02-04T00:51:01;6.55;;;5.05;;
81648;SDS011;71057;51.436;6.768;2024-02-04T00:53:26;7.30;;;4.50;;
81648;SDS011;71057;51.436;6.768;2024-02-04T00:55:58;7.43;;;4.13;;
81648;SDS011;71057;51.436;6.768;2024-02-04T00:58:23;7.40;;;5.22;;
81648;SDS011;71057;51.436;6.768;2024-02-04T01:00:49;7.65;;;5.25;;
81648;SDS011;71057;51.436;6.768;2024-02-04T01:03:14;8.25;;;5.25;;
81648;SDS011;71057;51.436;6.768;2024-02-04T01:05:39;8.70;;;6.35;;
81648;SDS011;71057;51.436;6.768;2024-02-04T01:08:05;7.95;;;4.85;;
81648;SDS011;71057;51.436;6.768;2024-02-04T01:10:30;8.13;;;5.15;;
81648;SDS011;71057;51.436;6.768;2024-02-04T01:12:56;10.70;;;5.90;;
81648;SDS011;71057;51.436;6.768;2024-02-04T01:15:21;11.27;;;6.30;;
81648;SDS011;71057;51.436;6.768;2024-02-04T01:17:46;9.63;;;5.57;;
81648;SDS011;71057;51.436;6.768;2024-02-04T01:20:11;9.17;;;5.50;;
81648;SDS011;71057;51.436;6.768;2024-02-04T01:22:37;9.32;;;5.93;;
81648;SDS011;71057;51.436;6.768;2024-02-04T01:25:02;10.67;;;6.47;;
81648;SDS011;71057;51.436;6.768;2024-02-04T01:27:28;11.45;;;6.63;;
81648;SDS011;71057;51.436;6.768;2024-02-04T01:29:53;12.27;;;7.27;;
81648;SDS011;71057;51.436;6.768;2024-02-04T01:32:18;10.98;;;6.60;;
81648;SDS011;71057;51.436;6.768;2024-02-04T01:34:44;11.53;;;6.97;;
81648;SDS011;71057;51.436;6.768;2024-02-04T01:37:09;12.57;;;6.70;;
81648;SDS011;71057;51.436;6.768;2024-02-04T01:39:34;10.98;;;6.50;;
81648;SDS011;71057;51.436;6.768;2024-02-04T01:41:59;10.30;;;6.60;;
81648;SDS011;71057;51.436;6.768;2024-02-04T01:44:26;9.18;;;5.57;;
81648;SDS011;71057;51.436;6.768;2024-02-04T01:46:52;8.88;;;5.50;;
81648;SDS011;71057;51.436;6.768;2024-02-04T01:49:18;11.25;;;5.93;;
81648;SDS011;71057;51.436;6.768;2024-02-04T01:51:43;9.70;;;5.68;;
81648;SDS011;71057;51.436;6.768;2024-02-04T01:54:08;9.93;;;5.90;;
81648;SDS011;71057;51.436;6.768;2024-02-04T01:56:35;10.55;;;6.00;;
81648;SDS011;71057;51.436;6.768;2024-02-04T01:59:01;9.02;;;5.88;;
81648;SDS011;71057;51.436;6.768;2024-02-04T02:01:27;10.55;;;6.40;;
81648;SDS011;71057;51.436;6.768;2024-02-04T02:03:52;9.43;;;5.97;;
81648;SDS011;71057;51.436;6.768;2024-02-04T02:06:18;11.70;;;6.18;;
81648;SDS011;71057;51.436;6.768;2024-02-04T02:08:44;10.23;;;6.15;;
81648;SDS011;71057;51.436;6.768;2024-02-04T02:14:08;10.05;;;5.78;;
81648;SDS011;71057;51.436;6.768;2024-02-04T02:16:37;9.05;;;5.60;;
81648;SDS011;71057;51.436;6.768;2024-02-04T02:21:57;9.88;;;5.63;;
81648;SDS011;71057;51.436;6.768;2024-02-04T02:24:35;10.57;;;6.63;;
81648;SDS011;71057;51.436;6.768;2024-02-04T02:27:04;9.50;;;6.15;;
81648;SDS011;71057;51.436;6.768;2024-02-04T02:29:31;9.82;;;6.47;;
81648;SDS011;71057;51.436;6.768;2024-02-04T02:31:57;10.80;;;6.13;;
81648;SDS011;71057;51.436;6.768;2024-02-04T02:34:23;8.05;;;5.03;;
81648;SDS011;71057;51.436;6.768;2024-02-04T02:36:56;10.75;;;6.32;;
81648;SDS011;71057;51.436;6.768;2024-02-04T02:39:30;8.88;;;5.93;;
81648;SDS011;71057;51.436;6.768;2024-02-04T02:41:59;10.63;;;6.30;;
81648;SDS011;71057;51.436;6.768;2024-02-04T02:44:26;10.05;;;6.30;;
81648;SDS011;71057;51.436;6.768;2024-02-04T02:46:54;12.25;;;6.90;;
81648;SDS011;71057;51.436;6.768;2024-02-04T02:49:20;10.20;;;6.55;;
81648;SDS011;71057;51.436;6.768;2024-02-04T02:51:46;10.60;;;6.53;;
81648;SDS011;71057;51.436;6.768;2024-02-04T02:54:11;10.87;;;6.00;;
81648;SDS011;71057;51.436;6.768;2024-02-04T02:56:37;12.90;;;7.72;;
81648;SDS011;71057;51.436;6.768;2024-02-04T02:59:02;10.73;;;6.45;;
81648;SDS011;71057;51.436;6.768;2024-02-04T03:01:28;10.80;;;6.50;;
81648;SDS011;71057;51.436;6.768;2024-02-04T03:03:54;12.32;;;7.28;;
81648;SDS011;71057;51.436;6.768;2024-02-04T03:06:19;12.95;;;8.10;;
81648;SDS011;71057;51.436;6.768;2024-02-04T03:08:44;12.60;;;7.90;;
81648;SDS011;71057;51.436;6.768;2024-02-04T03:11:10;12.50;;;7.50;;
81648;SDS011;71057;51.436;6.768;2024-02-04T03:13:37;14.57;;;8.37;;
81648;SDS011;71057;51.436;6.768;2024-02-04T03:16:03;11.80;;;7.78;;
81648;SDS011;71057;51.436;6.768;2024-02-04T03:18:29;13.73;;;7.80;;
81648;SDS011;71057;51.436;6.768;2024-02-04T03:20:54;14.13;;;8.13;;
81648;SDS011;71057;51.436;6.768;2024-02-04T03:23:19;14.27;;;8.07;;
81648;SDS011;71057;51.436;6.768;2024-02-04T03:25:44;13.63;;;7.80;;
81648;SDS011;71057;51.436;6.768;2024-02-04T03:28:10;13.67;;;8.00;;
81648;SDS011;71057;51.436;6.768;2024-02-04T03:30:35;13.23;;;8.83;;
81648;SDS011;71057;51.436;6.768;2024-02-04T03:33:00;13.53;;;8.73;;
81648;SDS011;71057;51.436;6.768;2024-02-04T03:35:26;13.40;;;8.43;;
81648;SDS011;71057;51.436;6.768;2024-02-04T03:37:51;16.23;;;9.00;;
81648;SDS011;71057;51.436;6.768;2024-02-04T03:40:17;14.87;;;9.43;;
81648;SDS011;71057;51.436;6.768;2024-02-04T03:45:09;19.27;;;10.20;;
81648;SDS011;71057;51.436;6.768;2024-02-04T03:47:35;18.30;;;8.95;;
81648;SDS011;71057;51.436;6.768;2024-02-04T03:50:00;17.93;;;10.73;;
81648;SDS011;71057;51.436;6.768;2024-02-04T03:52:25;14.85;;;9.13;;
81648;SDS011;71057;51.436;6.768;2024-02-04T03:54:50;18.03;;;10.13;;
81648;SDS011;71057;51.436;6.768;2024-02-04T03:57:16;18.47;;;10.90;;
81648;SDS011;71057;51.436;6.768;2024-02-04T03:59:44;18.07;;;11.50;;
81648;SDS011;71057;51.436;6.768;2024-02-04T04:02:10;18.30;;;10.75;;
81648;SDS011;71057;51.436;6.768;2024-02-04T04:04:35;18.57;;;12.27;;
81648;SDS011;71057;51.436;6.768;2024-02-04T04:07:01;16.77;;;9.53;;
81648;SDS011;71057;51.436;6.768;2024-02-04T04:09:26;15.55;;;9.48;;
81648;SDS011;71057;51.436;6.768;2024-02-04T04:11:51;17.20;;;9.93;;
81648;SDS011;71057;51.436;6.768;2024-02-04T04:14:17;16.47;;;10.73;;
81648;SDS011;71057;51.436;6.768;2024-02-04T04:16:42;20.27;;;10.10;;
81648;SDS011;71057;51.436;6.768;2024-02-04T04:19:07;19.80;;;9.93;;
81648;SDS011;71057;51.436;6.768;2024-02-04T04:21:33;14.98;;;8.75;;
81648;SDS011;71057;51.436;6.768;2024-02-04T04:23:58;14.53;;;8.63;;
81648;SDS011;71057;51.436;6.768;2024-02-04T04:26:23;18.07;;;10.33;;
81648;SDS011;71057;51.436;6.768;2024-02-04T04:28:49;16.85;;;9.98;;
81648;SDS011;71057;51.436;6.768;2024-02-04T04:31:14;17.77;;;9.93;;
81648;SDS011;71057;51.436;6.768;2024-02-04T04:33:40;16.50;;;9.40;;
81648;SDS011;71057;51.436;6.768;2024-02-04T04:36:05;15.88;;;10.02;;
81648;SDS011;71057;51.436;6.768;2024-02-04T04:38:31;15.75;;;9.27;;
81648;SDS011;71057;51.436;6.768;2024-02-04T04:40:56;18.00;;;9.85;;
81648;SDS011;71057;51.436;6.768;2024-02-04T04:43:21;17.50;;;9.95;;
81648;SDS011;71057;51.436;6.768;2024-02-04T04:45:47;14.73;;;9.80;;
81648;SDS011;71057;51.436;6.768;2024-02-04T04:48:12;20.53;;;10.50;;
81648;SDS011;71057;51.436;6.768;2024-02-04T04:50:37;16.25;;;10.00;;
81648;SDS011;71057;51.436;6.768;2024-02-04T04:53:03;15.68;;;9.50;;
81648;SDS011;71057;51.436;6.768;2024-02-04T04:55:28;14.60;;;9.55;;
81648;SDS011;71057;51.436;6.768;2024-02-04T04:57:53;13.85;;;8.52;;
81648;SDS011;71057;51.436;6.768;2024-02-04T05:00:19;15.93;;;9.03;;
81648;SDS011;71057;51.436;6.768;2024-02-04T05:02:44;14.30;;;9.23;;
81648;SDS011;71057;51.436;6.768;2024-02-04T05:05:10;12.32;;;7.90;;
81648;SDS011;71057;51.436;6.768;2024-02-04T05:07:36;16.38;;;9.48;;
81648;SDS011;71057;51.436;6.768;2024-02-04T05:10:02;14.68;;;8.50;;
81648;SDS011;71057;51.436;6.768;2024-02-04T05:12:27;12.93;;;7.70;;
81648;SDS011;71057;51.436;6.768;2024-02-04T05:14:53;12.67;;;8.27;;
81648;SDS011;71057;51.436;6.768;2024-02-04T05:17:18;14.23;;;8.43;;
81648;SDS011;71057;51.436;6.768;2024-02-04T05:19:43;13.00;;;9.00;;
81648;SDS011;71057;51.436;6.768;2024-02-04T05:22:09;11.17;;;7.43;;
81648;SDS011;71057;51.436;6.768;2024-02-04T05:24:35;13.68;;;9.02;;
81648;SDS011;71057;51.436;6.768;2024-02-04T05:27:00;14.07;;;8.65;;
81648;SDS011;71057;51.436;6.768;2024-02-04T05:29:25;15.10;;;9.07;;
81648;SDS011;71057;51.436;6.768;2024-02-04T05:31:51;16.63;;;9.13;;
81648;SDS011;71057;51.436;6.768;2024-02-04T05:34:16;18.23;;;9.87;;
81648;SDS011;71057;51.436;6.768;2024-02-04T05:36:42;15.57;;;9.52;;
81648;SDS011;71057;51.436;6.768;2024-02-04T05:41:36;19.05;;;10.48;;
81648;SDS011;71057;51.436;6.768;2024-02-04T05:44:02;19.25;;;11.10;;
81648;SDS011;71057;51.436;6.768;2024-02-04T05:46:27;19.38;;;11.02;;
81648;SDS011;71057;51.436;6.768;2024-02-04T05:48:53;18.92;;;11.02;;
81648;SDS011;71057;51.436;6.768;2024-02-04T05:51:18;18.63;;;11.20;;
81648;SDS011;71057;51.436;6.768;2024-02-04T05:53:43;20.67;;;11.73;;
81648;SDS011;71057;51.436;6.768;2024-02-04T05:56:09;16.60;;;11.27;;
81648;SDS011;71057;51.436;6.768;2024-02-04T05:58:34;20.23;;;12.43;;
81648;SDS011;71057;51.436;6.768;2024-02-04T06:00:59;23.53;;;12.73;;
81648;SDS011;71057;51.436;6.768;2024-02-04T06:03:24;20.08;;;11.70;;
81648;SDS011;71057;51.436;6.768;2024-02-04T06:05:50;21.30;;;12.07;;
81648;SDS011;71057;51.436;6.768;2024-02-04T06:08:15;24.20;;;12.20;;
81648;SDS011;71057;51.436;6.768;2024-02-04T06:10:41;28.43;;;14.50;;
81648;SDS011;71057;51.436;6.768;2024-02-04T06:13:06;26.17;;;14.75;;
81648;SDS011;71057;51.436;6.768;2024-02-04T06:15:31;33.90;;;17.17;;
81648;SDS011;71057;51.436;6.768;2024-02-04T06:17:57;34.78;;;17.83;;
81648;SDS011;71057;51.436;6.768;2024-02-04T06:20:22;35.23;;;16.70;;
81648;SDS011;71057;51.436;6.768;2024-02-04T06:22:47;32.07;;;16.60;;
81648;SDS011;71057;51.436;6.768;2024-02-04T06:25:13;30.37;;;16.03;;
81648;SDS011;71057;51.436;6.768;2024-02-04T06:27:38;25.55;;;14.07;;
81648;SDS011;71057;51.436;6.768;2024-02-04T06:30:03;31.07;;;14.90;;
81648;SDS011;71057;51.436;6.768;2024-02-04T06:32:29;39.13;;;19.52;;
81648;SDS011;71057;51.436;6.768;2024-02-04T06:34:54;37.33;;;19.23;;
81648;SDS011;71057;51.436;6.768;2024-02-04T06:37:20;36.13;;;18.90;;
81648;SDS011;71057;51.436;6.768;2024-02-04T06:39:46;34.00;;;16.23;;
81648;SDS011;71057;51.436;6.768;2024-02-04T06:42:11;27.43;;;14.43;;
81648;SDS011;71057;51.436;6.768;2024-02-04T06:44:36;30.73;;;15.07;;
81648;SDS011;71057;51.436;6.768;2024-02-04T06:47:02;26.93;;;14.03;;
81648;SDS011;71057;51.436;6.768;2024-02-04T06:49:27;29.75;;;14.27;;
81648;SDS011;71057;51.436;6.768;2024-02-04T06:51:52;27.30;;;13.40;;
81648;SDS011;71057;51.436;6.768;2024-02-04T06:54:21;30.17;;;16.15;;
81648;SDS011;71057;51.436;6.768;2024-02-04T06:56:51;28.23;;;14.02;;
81648;SDS011;71057;51.436;6.768;2024-02-04T06:59:17;27.33;;;12.07;;
81648;SDS011;71057;51.436;6.768;2024-02-04T07:01:43;22.47;;;12.90;;
81648;SDS011;71057;51.436;6.768;2024-02-04T07:04:08;21.73;;;10.75;;
81648;SDS011;71057;51.436;6.768;2024-02-04T07:06:33;22.13;;;11.33;;
81648;SDS011;71057;51.436;6.768;2024-02-04T07:08:59;25.08;;;11.38;;
81648;SDS011;71057;51.436;6.768;2024-02-04T07:11:24;21.63;;;11.48;;
81648;SDS011;71057;51.436;6.768;2024-02-04T07:13:49;24.77;;;12.57;;
81648;SDS011;71057;51.436;6.768;2024-02-04T07:16:16;21.52;;;10.27;;
81648;SDS011;71057;51.436;6.768;2024-02-04T07:18:41;21.83;;;11.07;;
81648;SDS011;71057;51.436;6.768;2024-02-04T07:21:07;24.50;;;10.87;;
81648;SDS011;71057;51.436;6.768;2024-02-04T07:23:32;18.10;;;10.33;;
81648;SDS011;71057;51.436;6.768;2024-02-04T07:25:57;18.50;;;9.63;;
81648;SDS011;71057;51.436;6.768;2024-02-04T07:28:22;18.33;;;9.40;;
81648;SDS011;71057;51.436;6.768;2024-02-04T07:30:48;17.65;;;8.70;;
81648;SDS011;71057;51.436;6.768;2024-02-04T07:33:13;18.67;;;8.90;;
81648;SDS011;71057;51.436;6.768;2024-02-04T07:35:38;16.97;;;8.60;;
81648;SDS011;71057;51.436;6.768;2024-02-04T07:38:04;18.30;;;9.03;;
81648;SDS011;71057;51.436;6.768;2024-02-04T07:40:29;18.20;;;9.13;;
81648;SDS011;71057;51.436;6.768;2024-02-04T07:42:55;17.02;;;8.07;;
81648;SDS011;71057;51.436;6.768;2024-02-04T07:45:20;17.75;;;8.85;;
81648;SDS011;71057;51.436;6.768;2024-02-04T07:47:45;16.57;;;8.07;;
81648;SDS011;71057;51.436;6.768;2024-02-04T07:50:11;15.30;;;7.95;;
81648;SDS011;71057;51.436;6.768;2024-02-04T07:52:36;18.10;;;9.00;;
81648;SDS011;71057;51.436;6.768;2024-02-04T07:55:02;16.93;;;8.17;;
81648;SDS011;71057;51.436;6.768;2024-02-04T07:57:27;16.17;;;8.98;;
81648;SDS011;71057;51.436;6.768;2024-02-04T07:59:52;17.27;;;8.32;;
81648;SDS011;71057;51.436;6.768;2024-02-04T08:02:18;16.08;;;7.90;;
81648;SDS011;71057;51.436;6.768;2024-02-04T08:04:43;13.83;;;6.77;;
81648;SDS011;71057;51.436;6.768;2024-02-04T08:07:09;17.50;;;7.22;;
81648;SDS011;71057;51.436;6.768;2024-02-04T08:09:34;19.23;;;8.80;;
81648;SDS011;71057;51.436;6.768;2024-02-04T08:11:59;17.98;;;9.38;;
81648;SDS011;71057;51.436;6.768;2024-02-04T08:14:24;16.85;;;8.52;;
81648;SDS011;71057;51.436;6.768;2024-02-04T08:16:50;16.80;;;7.73;;
81648;SDS011;71057;51.436;6.768;2024-02-04T08:19:18;14.73;;;7.18;;
81648;SDS011;71057;51.436;6.768;2024-02-04T08:21:43;15.68;;;8.10;;
81648;SDS011;71057;51.436;6.768;2024-02-04T08:24:08;12.53;;;7.37;;
81648;SDS011;71057;51.436;6.768;2024-02-04T08:26:34;16.50;;;8.20;;
81648;SDS011;71057;51.436;6.768;2024-02-04T08:28:59;14.35;;;7.85;;
81648;SDS011;71057;51.436;6.768;2024-02-04T08:31:25;14.50;;;8.75;;
81648;SDS011;71057;51.436;6.768;2024-02-04T08:33:50;13.38;;;7.18;;
81648;SDS011;71057;51.436;6.768;2024-02-04T08:36:17;19.63;;;8.10;;
81648;SDS011;71057;51.436;6.768;2024-02-04T08:38:43;16.70;;;8.75;;
81648;SDS011;71057;51.436;6.768;2024-02-04T08:41:08;16.10;;;8.10;;
81648;SDS011;71057;51.436;6.768;2024-02-04T08:43:33;16.03;;;8.83;;
81648;SDS011;71057;51.436;6.768;2024-02-04T08:45:58;17.43;;;8.83;;
81648;SDS011;71057;51.436;6.768;2024-02-04T08:48:24;16.60;;;9.48;;
81648;SDS011;71057;51.436;6.768;2024-02-04T08:50:49;15.57;;;8.63;;
81648;SDS011;71057;51.436;6.768;2024-02-04T08:53:14;17.92;;;9.30;;
81648;SDS011;71057;51.436;6.768;2024-02-04T08:55:39;16.57;;;9.60;;
81648;SDS011;71057;51.436;6.768;2024-02-04T08:58:05;17.83;;;9.70;;
81648;SDS011;71057;51.436;6.768;2024-02-04T09:00:30;18.92;;;8.85;;
81648;SDS011;71057;51.436;6.768;2024-02-04T09:02:55;16.37;;;8.87;;
81648;SDS011;71057;51.436;6.768;2024-02-04T09:05:21;15.17;;;7.87;;
81648;SDS011;71057;51.436;6.768;2024-02-04T09:07:46;16.25;;;8.38;;
81648;SDS011;71057;51.436;6.768;2024-02-04T09:10:12;14.25;;;8.30;;
81648;SDS011;71057;51.436;6.768;2024-02-04T09:12:37;13.05;;;7.55;;
81648;SDS011;71057;51.436;6.768;2024-02-04T09:15:03;12.40;;;7.70;;
81648;SDS011;71057;51.436;6.768;2024-02-04T09:17:29;13.43;;;6.90;;
81648;SDS011;71057;51.436;6.768;2024-02-04T09:19:55;13.07;;;7.18;;
81648;SDS011;71057;51.436;6.768;2024-02-04T09:22:20;15.73;;;7.65;;
81648;SDS011;71057;51.436;6.768;2024-02-04T09:24:46;12.37;;;6.23;;
81648;SDS011;71057;51.436;6.768;2024-02-04T09:27:11;13.10;;;7.03;;
81648;SDS011;71057;51.436;6.768;2024-02-04T09:29:36;11.97;;;6.47;;
81648;SDS011;71057;51.436;6.768;2024-02-04T09:32:01;13.90;;;7.73;;
81648;SDS011;71057;51.436;6.768;2024-02-04T09:34:27;12.27;;;7.07;;
81648;SDS011;71057;51.436;6.768;2024-02-04T09:36:52;12.07;;;6.50;;
81648;SDS011;71057;51.436;6.768;2024-02-04T09:39:18;13.15;;;6.75;;
81648;SDS011;71057;51.436;6.768;2024-02-04T09:41:44;13.60;;;8.02;;
81648;SDS011;71057;51.436;6.768;2024-02-04T09:44:09;17.57;;;10.43;;
81648;SDS011;71057;51.436;6.768;2024-02-04T09:46:35;13.95;;;9.13;;
81648;SDS011;71057;51.436;6.768;2024-02-04T09:49:00;16.23;;;8.98;;
81648;SDS011;71057;51.436;6.768;2024-02-04T09:51:27;13.98;;;8.27;;
81648;SDS011;71057;51.436;6.768;2024-02-04T09:53:53;16.20;;;8.45;;
81648;SDS011;71057;51.436;6.768;2024-02-04T09:56:27;12.32;;;7.68;;
81648;SDS011;71057;51.436;6.768;2024-02-04T09:58:54;12.73;;;6.78;;
81648;SDS011;71057;51.436;6.768;2024-02-04T10:01:19;14.87;;;6.97;;
81648;SDS011;71057;51.436;6.768;2024-02-04T10:03:47;10.32;;;5.60;;
81648;SDS011;71057;51.436;6.768;2024-02-04T10:06:13;12.43;;;7.03;;
81648;SDS011;71057;51.436;6.768;2024-02-04T10:08:38;13.30;;;5.57;;
81648;SDS011;71057;51.436;6.768;2024-02-04T10:11:04;12.43;;;5.72;;
81648;SDS011;71057;51.436;6.768;2024-02-04T10:13:29;9.70;;;6.00;;
81648;SDS011;71057;51.436;6.768;2024-02-04T10:15:54;10.25;;;6.20;;
81648;SDS011;71057;51.436;6.768;2024-02-04T10:18:20;13.80;;;6.50;;
81648;SDS011;71057;51.436;6.768;2024-02-04T10:20:46;12.50;;;6.32;;
81648;SDS011;71057;51.436;6.768;2024-02-04T10:23:12;10.63;;;6.40;;
81648;SDS011;71057;51.436;6.768;2024-02-04T10:25:37;10.07;;;5.70;;
81648;SDS011;71057;51.436;6.768;2024-02-04T10:28:02;10.30;;;5.35;;
81648;SDS011;71057;51.436;6.768;2024-02-04T10:30:28;8.38;;;4.70;;
81648;SDS011;71057;51.436;6.768;2024-02-04T10:32:54;6.90;;;4.83;;
81648;SDS011;71057;51.436;6.768;2024-02-04T10:35:22;7.28;;;4.97;;
81648;SDS011;71057;51.436;6.768;2024-02-04T10:37:51;9.43;;;5.47;;
81648;SDS011;71057;51.436;6.768;2024-02-04T10:40:17;7.82;;;5.35;;
81648;SDS011;71057;51.436;6.768;2024-02-04T10:42:43;8.80;;;4.60;;
81648;SDS011;71057;51.436;6.768;2024-02-04T10:45:09;8.90;;;5.30;;
81648;SDS011;71057;51.436;6.768;2024-02-04T10:47:36;8.10;;;4.90;;
81648;SDS011;71057;51.436;6.768;2024-02-04T10:50:06;8.10;;;4.68;;
81648;SDS011;71057;51.436;6.768;2024-02-04T10:52:36;8.55;;;4.90;;
81648;SDS011;71057;51.436;6.768;2024-02-04T10:55:10;7.10;;;4.35;;
81648;SDS011;71057;51.436;6.768;2024-02-04T10:57:37;6.97;;;3.75;;
81648;SDS011;71057;51.436;6.768;2024-02-04T11:00:03;7.13;;;4.07;;
81648;SDS011;71057;51.436;6.768;2024-02-04T11:02:36;6.53;;;3.95;;
81648;SDS011;71057;51.436;6.768;2024-02-04T11:05:03;6.28;;;3.85;;
81648;SDS011;71057;51.436;6.768;2024-02-04T11:07:33;5.78;;;4.20;;
81648;SDS011;71057;51.436;6.768;2024-02-04T11:10:00;7.57;;;4.30;;
81648;SDS011;71057;51.436;6.768;2024-02-04T11:12:27;9.48;;;5.60;;
81648;SDS011;71057;51.436;6.768;2024-02-04T11:14:55;11.48;;;5.82;;
81648;SDS011;71057;51.436;6.768;2024-02-04T11:21:10;7.20;;;3.97;;
81648;SDS011;71057;51.436;6.768;2024-02-04T11:26:13;8.68;;;4.45;;
81648;SDS011;71057;51.436;6.768;2024-02-04T11:28:41;6.93;;;4.20;;
81648;SDS011;71057;51.436;6.768;2024-02-04T11:31:13;7.35;;;3.97;;
81648;SDS011;71057;51.436;6.768;2024-02-04T11:33:40;7.20;;;3.92;;
81648;SDS011;71057;51.436;6.768;2024-02-04T11:36:06;7.95;;;4.18;;
81648;SDS011;71057;51.436;6.768;2024-02-04T11:38:37;7.05;;;4.20;;
81648;SDS011;71057;51.436;6.768;2024-02-04T11:41:03;8.82;;;4.50;;
81648;SDS011;71057;51.436;6.768;2024-02-04T11:43:31;7.45;;;4.60;;
81648;SDS011;71057;51.436;6.768;2024-02-04T11:45:58;7.72;;;4.40;;
81648;SDS011;71057;51.436;6.768;2024-02-04T11:48:32;7.43;;;4.18;;
81648;SDS011;71057;51.436;6.768;2024-02-04T11:50:58;8.60;;;5.53;;
81648;SDS011;71057;51.436;6.768;2024-02-04T11:53:27;10.15;;;5.38;;
81648;SDS011;71057;51.436;6.768;2024-02-04T11:55:57;8.23;;;5.30;;
81648;SDS011;71057;51.436;6.768;2024-02-04T11:58:23;11.10;;;5.60;;
81648;SDS011;71057;51.436;6.768;2024-02-04T12:00:50;9.65;;;6.40;;
81648;SDS011;71057;51.436;6.768;2024-02-04T12:03:27;12.02;;;6.53;;
81648;SDS011;71057;51.436;6.768;2024-02-04T12:05:53;9.45;;;6.20;;
81648;SDS011;71057;51.436;6.768;2024-02-04T12:08:20;10.15;;;6.15;;
81648;SDS011;71057;51.436;6.768;2024-02-04T12:10:45;7.90;;;6.15;;
81648;SDS011;71057;51.436;6.768;2024-02-04T12:13:13;9.30;;;5.03;;
81648;SDS011;71057;51.436;6.768;2024-02-04T12:15:38;7.47;;;5.40;;
81648;SDS011;71057;51.436;6.768;2024-02-04T12:18:05;7.43;;;4.82;;
81648;SDS011;71057;51.436;6.768;2024-02-04T12:20:34;9.45;;;5.95;;
81648;SDS011;71057;51.436;6.768;2024-02-04T12:23:04;7.28;;;5.07;;
81648;SDS011;71057;51.436;6.768;2024-02-04T12:25:30;7.75;;;5.25;;
81648;SDS011;71057;51.436;6.768;2024-02-04T12:27:59;9.05;;;5.75;;
81648;SDS011;71057;51.436;6.768;2024-02-04T12:30:27;9.10;;;5.47;;
81648;SDS011;71057;51.436;6.768;2024-02-04T12:32:59;9.85;;;6.00;;
81648;SDS011;71057;51.436;6.768;2024-02-04T12:35:26;8.30;;;5.30;;
81648;SDS011;71057;51.436;6.768;2024-02-04T12:37:53;7.50;;;4.82;;
81648;SDS011;71057;51.436;6.768;2024-02-04T12:40:25;9.77;;;6.13;;
81648;SDS011;71057;51.436;6.768;2024-02-04T12:42:55;11.55;;;5.68;;
81648;SDS011;71057;51.436;6.768;2024-02-04T12:45:21;7.95;;;5.07;;
81648;SDS011;71057;51.436;6.768;2024-02-04T12:47:51;8.68;;;5.18;;
81648;SDS011;71057;51.436;6.768;2024-02-04T12:50:17;7.78;;;4.78;;
81648;SDS011;71057;51.436;6.768;2024-02-04T12:52:44;7.57;;;4.65;;
81648;SDS011;71057;51.436;6.768;2024-02-04T12:55:21;8.50;;;5.07;;
81648;SDS011;71057;51.436;6.768;2024-02-04T12:57:48;8.75;;;5.75;;
81648;SDS011;71057;51.436;6.768;2024-02-04T13:00:14;8.85;;;4.75;;
81648;SDS011;71057;51.436;6.768;2024-02-04T13:02:42;7.47;;;4.97;;
81648;SDS011;71057;51.436;6.768;2024-02-04T13:05:08;9.23;;;5.30;;
81648;SDS011;71057;51.436;6.768;2024-02-04T13:07:33;7.88;;;4.57;;
81648;SDS011;71057;51.436;6.768;2024-02-04T13:09:59;6.55;;;4.78;;
81648;SDS011;71057;51.436;6.768;2024-02-04T13:12:25;6.30;;;4.72;;
81648;SDS011;71057;51.436;6.768;2024-02-04T13:14:50;10.05;;;5.10;;
81648;SDS011;71057;51.436;6.768;2024-02-04T13:17:16;6.80;;;4.32;;
81648;SDS011;71057;51.436;6.768;2024-02-04T13:19:41;7.35;;;4.65;;
81648;SDS011;71057;51.436;6.768;2024-02-04T13:22:07;5.82;;;4.30;;
81648;SDS011;71057;51.436;6.768;2024-02-04T13:24:34;7.38;;;4.82;;
81648;SDS011;71057;51.436;6.768;2024-02-04T13:27:00;7.63;;;4.45;;
81648;SDS011;71057;51.436;6.768;2024-02-04T13:29:26;6.72;;;4.55;;
81648;SDS011;71057;51.436;6.768;2024-02-04T13:31:51;7.18;;;5.05;;
81648;SDS011;71057;51.436;6.768;2024-02-04T13:34:17;7.07;;;4.97;;
81648;SDS011;71057;51.436;6.768;2024-02-04T13:36:42;6.80;;;5.57;;
81648;SDS011;71057;51.436;6.768;2024-02-04T13:39:08;7.85;;;5.57;;
81648;SDS011;71057;51.436;6.768;2024-02-04T13:41:34;8.30;;;5.25;;
81648;SDS011;71057;51.436;6.768;2024-02-04T13:44:00;8.55;;;5.85;;
81648;SDS011;71057;51.436;6.768;2024-02-04T13:46:26;7.03;;;4.65;;
81648;SDS011;71057;51.436;6.768;2024-02-04T13:48:51;8.37;;;5.63;;
81648;SDS011;71057;51.436;6.768;2024-02-04T13:51:16;8.20;;;5.37;;
81648;SDS011;71057;51.436;6.768;2024-02-04T13:53:42;8.25;;;5.95;;
81648;SDS011;71057;51.436;6.768;2024-02-04T13:56:07;8.23;;;6.35;;
81648;SDS011;71057;51.436;6.768;2024-02-04T13:58:32;10.20;;;6.27;;
81648;SDS011;71057;51.436;6.768;2024-02-04T14:00:58;10.50;;;5.97;;
81648;SDS011;71057;51.436;6.768;2024-02-04T14:03:24;11.98;;;7.60;;
81648;SDS011;71057;51.436;6.768;2024-02-04T14:05:49;9.13;;;6.72;;
81648;SDS011;71057;51.436;6.768;2024-02-04T14:08:15;10.85;;;6.75;;
81648;SDS011;71057;51.436;6.768;2024-02-04T14:10:40;9.73;;;6.82;;
81648;SDS011;71057;51.436;6.768;2024-02-04T14:13:06;9.50;;;6.38;;
81648;SDS011;71057;51.436;6.768;2024-02-04T14:15:31;13.98;;;6.97;;
81648;SDS011;71057;51.436;6.768;2024-02-04T14:17:56;9.27;;;6.80;;
81648;SDS011;71057;51.436;6.768;2024-02-04T14:20:22;8.45;;;5.68;;
81648;SDS011;71057;51.436;6.768;2024-02-04T14:22:48;9.60;;;6.47;;
81648;SDS011;71057;51.436;6.768;2024-02-04T14:25:14;8.95;;;5.72;;
81648;SDS011;71057;51.436;6.768;2024-02-04T14:27:39;8.63;;;6.38;;
81648;SDS011;71057;51.436;6.768;2024-02-04T14:30:05;7.80;;;5.90;;
81648;SDS011;71057;51.436;6.768;2024-02-04T14:32:31;7.55;;;5.78;;
81648;SDS011;71057;51.436;6.768;2024-02-04T14:34:57;10.90;;;6.25;;
81648;SDS011;71057;51.436;6.768;2024-02-04T14:37:23;9.60;;;6.10;;
81648;SDS011;71057;51.436;6.768;2024-02-04T14:39:48;9.38;;;5.70;;
81648;SDS011;71057;51.436;6.768;2024-02-04T14:42:14;9.38;;;5.75;;
81648;SDS011;71057;51.436;6.768;2024-02-04T14:44:40;12.10;;;7.47;;
81648;SDS011;71057;51.436;6.768;2024-02-04T14:47:06;11.47;;;7.17;;